sensor_id;sensor_type;location;lat;lon;timestamp;P1;durP1;ratioP1;P2;durP2;ratioP2
20739;SDS011;10530;49.968;19.844;2022-08-19T00:04:38;18.05;;;9.02;;
20739;SDS011;10530;49.968;19.844;2022-08-19T00:09:42;17.67;;;8.60;;
20739;SDS011;10530;49.968;19.844;2022-08-19T00:14:44;18.73;;;9.38;;
20739;SDS011;10530;49.968;19.844;2022-08-19T00:19:47;18.57;;;9.43;;
20739;SDS011;10530;49.968;19.844;2022-08-19T00:24:50;18.42;;;8.98;;
20739;SDS011;10530;49.968;19.844;2022-08-19T00:29:53;18.65;;;8.90;;
20739;SDS011;10530;49.968;19.844;2022-08-19T00:34:56;19.60;;;8.87;;
20739;SDS011;10530;49.968;19.844;2022-08-19T00:39:59;18.65;;;9.60;;
20739;SDS011;10530;49.968;19.844;2022-08-19T00:45:02;18.40;;;9.23;;
20739;SDS011;10530;49.968;19.844;2022-08-19T00:50:11;16.85;;;9.10;;
20739;SDS011;10530;49.968;19.844;2022-08-19T00:55:21;16.77;;;8.93;;
20739;SDS011;10530;49.968;19.844;2022-08-19T01:00:26;17.53;;;8.97;;
20739;SDS011;10530;49.968;19.844;2022-08-19T01:05:30;16.92;;;8.82;;
20739;SDS011;10530;49.968;19.844;2022-08-19T01:10:36;19.30;;;9.73;;
20739;SDS011;10530;49.968;19.844;2022-08-19T01:15:43;18.77;;;9.25;;
20739;SDS011;10530;49.968;19.844;2022-08-19T01:20:49;20.05;;;9.05;;
20739;SDS011;10530;49.968;19.844;2022-08-19T01:25:54;20.07;;;9.80;;
20739;SDS011;10530;49.968;19.844;2022-08-19T01:30:59;20.27;;;10.07;;
20739;SDS011;10530;49.968;19.844;2022-08-19T01:36:10;20.97;;;9.83;;
20739;SDS011;10530;49.968;19.844;2022-08-19T01:41:17;18.88;;;9.48;;
20739;SDS011;10530;49.968;19.844;2022-08-19T01:46:20;18.58;;;9.30;;
20739;SDS011;10530;49.968;19.844;2022-08-19T01:51:26;20.73;;;9.33;;
20739;SDS011;10530;49.968;19.844;2022-08-19T01:56:39;30.27;;;10.57;;
20739;SDS011;10530;49.968;19.844;2022-08-19T02:01:42;32.03;;;10.37;;
20739;SDS011;10530;49.968;19.844;2022-08-19T02:06:45;21.13;;;9.75;;
20739;SDS011;10530;49.968;19.844;2022-08-19T02:11:48;23.33;;;10.05;;
20739;SDS011;10530;49.968;19.844;2022-08-19T02:16:51;21.40;;;9.23;;
20739;SDS011;10530;49.968;19.844;2022-08-19T02:21:54;21.80;;;10.43;;
20739;SDS011;10530;49.968;19.844;2022-08-19T02:26:56;21.23;;;9.77;;
20739;SDS011;10530;49.968;19.844;2022-08-19T02:32:00;21.13;;;10.27;;
20739;SDS011;10530;49.968;19.844;2022-08-19T02:37:03;18.30;;;9.38;;
20739;SDS011;10530;49.968;19.844;2022-08-19T02:42:06;17.37;;;9.07;;
20739;SDS011;10530;49.968;19.844;2022-08-19T02:47:09;19.90;;;9.77;;
20739;SDS011;10530;49.968;19.844;2022-08-19T02:52:12;20.77;;;9.20;;
20739;SDS011;10530;49.968;19.844;2022-08-19T02:57:15;20.02;;;9.77;;
20739;SDS011;10530;49.968;19.844;2022-08-19T03:02:18;19.52;;;9.50;;
20739;SDS011;10530;49.968;19.844;2022-08-19T03:07:21;17.93;;;9.33;;
20739;SDS011;10530;49.968;19.844;2022-08-19T03:12:24;19.63;;;8.98;;
20739;SDS011;10530;49.968;19.844;2022-08-19T03:17:27;19.37;;;9.47;;
20739;SDS011;10530;49.968;19.844;2022-08-19T03:22:30;20.95;;;9.50;;
20739;SDS011;10530;49.968;19.844;2022-08-19T03:27:32;20.52;;;9.38;;
20739;SDS011;10530;49.968;19.844;2022-08-19T03:32:35;19.27;;;9.73;;
20739;SDS011;10530;49.968;19.844;2022-08-19T03:37:58;21.05;;;9.20;;
20739;SDS011;10530;49.968;19.844;2022-08-19T03:43:01;21.00;;;9.20;;
20739;SDS011;10530;49.968;19.844;2022-08-19T03:48:04;18.85;;;10.00;;
20739;SDS011;10530;49.968;19.844;2022-08-19T03:53:07;22.05;;;9.82;;
20739;SDS011;10530;49.968;19.844;2022-08-19T03:58:10;19.30;;;9.60;;
20739;SDS011;10530;49.968;19.844;2022-08-19T04:03:13;20.33;;;8.85;;
20739;SDS011;10530;49.968;19.844;2022-08-19T04:08:16;20.07;;;9.83;;
20739;SDS011;10530;49.968;19.844;2022-08-19T04:13:22;19.85;;;10.05;;
20739;SDS011;10530;49.968;19.844;2022-08-19T04:18:24;20.55;;;9.35;;
20739;SDS011;10530;49.968;19.844;2022-08-19T04:23:27;19.43;;;9.23;;
20739;SDS011;10530;49.968;19.844;2022-08-19T04:28:30;20.00;;;9.23;;
20739;SDS011;10530;49.968;19.844;2022-08-19T04:33:34;18.83;;;9.73;;
20739;SDS011;10530;49.968;19.844;2022-08-19T04:38:37;21.20;;;9.88;;
20739;SDS011;10530;49.968;19.844;2022-08-19T04:43:40;21.77;;;9.63;;
20739;SDS011;10530;49.968;19.844;2022-08-19T04:48:42;21.73;;;9.67;;
20739;SDS011;10530;49.968;19.844;2022-08-19T04:53:50;19.45;;;8.68;;
20739;SDS011;10530;49.968;19.844;2022-08-19T04:58:55;21.23;;;9.57;;
20739;SDS011;10530;49.968;19.844;2022-08-19T05:03:59;17.15;;;9.32;;
20739;SDS011;10530;49.968;19.844;2022-08-19T05:09:04;17.73;;;9.60;;
20739;SDS011;10530;49.968;19.844;2022-08-19T05:14:07;18.40;;;9.20;;
20739;SDS011;10530;49.968;19.844;2022-08-19T05:19:11;18.75;;;9.68;;
20739;SDS011;10530;49.968;19.844;2022-08-19T05:24:34;18.20;;;9.43;;
20739;SDS011;10530;49.968;19.844;2022-08-19T05:29:57;18.83;;;9.90;;
20739;SDS011;10530;49.968;19.844;2022-08-19T05:35:01;21.45;;;10.80;;
20739;SDS011;10530;49.968;19.844;2022-08-19T05:40:05;18.53;;;10.20;;
20739;SDS011;10530;49.968;19.844;2022-08-19T05:45:08;19.33;;;9.50;;
20739;SDS011;10530;49.968;19.844;2022-08-19T05:50:14;17.13;;;9.77;;
20739;SDS011;10530;49.968;19.844;2022-08-19T05:55:17;18.05;;;9.80;;
20739;SDS011;10530;49.968;19.844;2022-08-19T06:00:22;16.98;;;9.35;;
20739;SDS011;10530;49.968;19.844;2022-08-19T06:05:25;20.17;;;8.90;;
20739;SDS011;10530;49.968;19.844;2022-08-19T06:10:28;19.77;;;10.18;;
20739;SDS011;10530;49.968;19.844;2022-08-19T06:15:32;18.90;;;9.80;;
20739;SDS011;10530;49.968;19.844;2022-08-19T06:20:35;20.63;;;9.95;;
20739;SDS011;10530;49.968;19.844;2022-08-19T06:25:56;19.55;;;9.95;;
20739;SDS011;10530;49.968;19.844;2022-08-19T06:31:04;17.27;;;10.10;;
20739;SDS011;10530;49.968;19.844;2022-08-19T06:36:16;19.02;;;10.18;;
20739;SDS011;10530;49.968;19.844;2022-08-19T06:41:27;18.20;;;9.70;;
20739;SDS011;10530;49.968;19.844;2022-08-19T06:46:30;19.92;;;9.70;;
20739;SDS011;10530;49.968;19.844;2022-08-19T06:51:36;17.92;;;9.90;;
20739;SDS011;10530;49.968;19.844;2022-08-19T06:56:45;17.00;;;9.20;;
20739;SDS011;10530;49.968;19.844;2022-08-19T07:01:50;18.88;;;9.55;;
20739;SDS011;10530;49.968;19.844;2022-08-19T07:12:20;16.73;;;9.60;;
20739;SDS011;10530;49.968;19.844;2022-08-19T07:17:24;17.67;;;9.30;;
20739;SDS011;10530;49.968;19.844;2022-08-19T07:22:27;15.70;;;9.53;;
20739;SDS011;10530;49.968;19.844;2022-08-19T07:27:30;15.25;;;9.40;;
20739;SDS011;10530;49.968;19.844;2022-08-19T07:32:34;20.17;;;9.10;;
20739;SDS011;10530;49.968;19.844;2022-08-19T07:37:37;13.95;;;8.80;;
20739;SDS011;10530;49.968;19.844;2022-08-19T07:42:41;16.15;;;8.82;;
20739;SDS011;10530;49.968;19.844;2022-08-19T07:47:45;13.50;;;8.93;;
20739;SDS011;10530;49.968;19.844;2022-08-19T07:52:52;17.30;;;10.00;;
20739;SDS011;10530;49.968;19.844;2022-08-19T07:57:55;17.30;;;9.27;;
20739;SDS011;10530;49.968;19.844;2022-08-19T08:02:57;17.10;;;9.65;;
20739;SDS011;10530;49.968;19.844;2022-08-19T08:08:00;15.77;;;9.15;;
20739;SDS011;10530;49.968;19.844;2022-08-19T08:13:36;14.80;;;8.57;;
20739;SDS011;10530;49.968;19.844;2022-08-19T08:18:40;14.45;;;8.75;;
20739;SDS011;10530;49.968;19.844;2022-08-19T08:23:51;16.50;;;8.83;;
20739;SDS011;10530;49.968;19.844;2022-08-19T08:28:57;13.48;;;8.20;;
20739;SDS011;10530;49.968;19.844;2022-08-19T08:34:00;12.10;;;8.13;;
20739;SDS011;10530;49.968;19.844;2022-08-19T08:39:03;14.53;;;8.87;;
20739;SDS011;10530;49.968;19.844;2022-08-19T08:44:11;17.63;;;8.60;;
20739;SDS011;10530;49.968;19.844;2022-08-19T08:49:27;13.17;;;8.63;;
20739;SDS011;10530;49.968;19.844;2022-08-19T08:54:53;13.77;;;8.60;;
20739;SDS011;10530;49.968;19.844;2022-08-19T09:00:00;15.55;;;8.70;;
20739;SDS011;10530;49.968;19.844;2022-08-19T09:05:16;17.63;;;8.30;;
20739;SDS011;10530;49.968;19.844;2022-08-19T09:16:05;13.97;;;9.03;;
20739;SDS011;10530;49.968;19.844;2022-08-19T09:21:17;14.45;;;8.00;;
20739;SDS011;10530;49.968;19.844;2022-08-19T09:26:27;12.52;;;8.73;;
20739;SDS011;10530;49.968;19.844;2022-08-19T09:31:50;13.90;;;8.57;;
20739;SDS011;10530;49.968;19.844;2022-08-19T09:36:53;15.38;;;8.73;;
20739;SDS011;10530;49.968;19.844;2022-08-19T09:41:57;13.30;;;8.03;;
20739;SDS011;10530;49.968;19.844;2022-08-19T09:47:00;12.52;;;8.18;;
20739;SDS011;10530;49.968;19.844;2022-08-19T09:52:03;11.38;;;7.90;;
20739;SDS011;10530;49.968;19.844;2022-08-19T09:57:07;13.80;;;7.50;;
20739;SDS011;10530;49.968;19.844;2022-08-19T10:02:10;13.68;;;7.25;;
20739;SDS011;10530;49.968;19.844;2022-08-19T10:07:14;10.77;;;7.70;;
20739;SDS011;10530;49.968;19.844;2022-08-19T10:12:18;11.38;;;7.47;;
20739;SDS011;10530;49.968;19.844;2022-08-19T10:17:22;13.75;;;7.97;;
20739;SDS011;10530;49.968;19.844;2022-08-19T10:22:32;13.37;;;7.80;;
20739;SDS011;10530;49.968;19.844;2022-08-19T10:27:38;11.10;;;7.88;;
20739;SDS011;10530;49.968;19.844;2022-08-19T10:32:41;12.43;;;7.63;;
20739;SDS011;10530;49.968;19.844;2022-08-19T10:37:47;13.35;;;7.70;;
20739;SDS011;10530;49.968;19.844;2022-08-19T10:43:02;12.30;;;7.75;;
20739;SDS011;10530;49.968;19.844;2022-08-19T10:48:05;10.80;;;7.70;;
20739;SDS011;10530;49.968;19.844;2022-08-19T10:53:12;12.18;;;8.32;;
20739;SDS011;10530;49.968;19.844;2022-08-19T10:58:16;13.93;;;8.47;;
20739;SDS011;10530;49.968;19.844;2022-08-19T11:03:25;12.55;;;7.82;;
20739;SDS011;10530;49.968;19.844;2022-08-19T11:08:30;11.27;;;7.85;;
20739;SDS011;10530;49.968;19.844;2022-08-19T11:13:35;11.60;;;8.03;;
20739;SDS011;10530;49.968;19.844;2022-08-19T11:18:41;12.13;;;8.60;;
20739;SDS011;10530;49.968;19.844;2022-08-19T11:23:49;12.43;;;8.23;;
20739;SDS011;10530;49.968;19.844;2022-08-19T11:28:54;12.20;;;8.90;;
20739;SDS011;10530;49.968;19.844;2022-08-19T11:33:58;14.85;;;8.65;;
20739;SDS011;10530;49.968;19.844;2022-08-19T11:39:04;13.40;;;8.33;;
20739;SDS011;10530;49.968;19.844;2022-08-19T11:44:08;11.77;;;8.35;;
20739;SDS011;10530;49.968;19.844;2022-08-19T11:49:12;12.27;;;8.60;;
20739;SDS011;10530;49.968;19.844;2022-08-19T11:54:17;15.52;;;8.52;;
20739;SDS011;10530;49.968;19.844;2022-08-19T11:59:20;11.73;;;8.40;;
20739;SDS011;10530;49.968;19.844;2022-08-19T12:04:23;10.93;;;7.77;;
20739;SDS011;10530;49.968;19.844;2022-08-19T12:09:26;11.90;;;8.18;;
20739;SDS011;10530;49.968;19.844;2022-08-19T12:14:31;11.20;;;7.83;;
20739;SDS011;10530;49.968;19.844;2022-08-19T12:19:35;10.63;;;7.35;;
20739;SDS011;10530;49.968;19.844;2022-08-19T12:24:39;13.98;;;8.00;;
20739;SDS011;10530;49.968;19.844;2022-08-19T12:29:42;10.00;;;7.43;;
20739;SDS011;10530;49.968;19.844;2022-08-19T12:34:45;16.25;;;7.20;;
20739;SDS011;10530;49.968;19.844;2022-08-19T12:39:49;10.67;;;6.83;;
20739;SDS011;10530;49.968;19.844;2022-08-19T12:44:52;11.35;;;7.45;;
20739;SDS011;10530;49.968;19.844;2022-08-19T12:49:55;11.77;;;7.43;;
20739;SDS011;10530;49.968;19.844;2022-08-19T12:54:58;12.17;;;6.63;;
20739;SDS011;10530;49.968;19.844;2022-08-19T13:00:06;9.75;;;6.18;;
20739;SDS011;10530;49.968;19.844;2022-08-19T13:05:16;15.87;;;6.30;;
20739;SDS011;10530;49.968;19.844;2022-08-19T13:10:29;9.63;;;6.25;;
20739;SDS011;10530;49.968;19.844;2022-08-19T13:15:37;9.80;;;6.20;;
20739;SDS011;10530;49.968;19.844;2022-08-19T13:20:42;10.93;;;6.43;;
20739;SDS011;10530;49.968;19.844;2022-08-19T13:26:00;8.93;;;5.78;;
20739;SDS011;10530;49.968;19.844;2022-08-19T13:31:05;9.67;;;5.90;;
20739;SDS011;10530;49.968;19.844;2022-08-19T13:36:26;10.95;;;6.10;;
20739;SDS011;10530;49.968;19.844;2022-08-19T13:41:29;10.77;;;5.45;;
20739;SDS011;10530;49.968;19.844;2022-08-19T13:46:32;8.03;;;5.50;;
20739;SDS011;10530;49.968;19.844;2022-08-19T13:51:37;8.73;;;5.45;;
20739;SDS011;10530;49.968;19.844;2022-08-19T13:56:43;11.87;;;6.30;;
20739;SDS011;10530;49.968;19.844;2022-08-19T14:01:47;9.35;;;6.15;;
20739;SDS011;10530;49.968;19.844;2022-08-19T14:06:50;8.73;;;5.70;;
20739;SDS011;10530;49.968;19.844;2022-08-19T14:11:53;8.77;;;6.10;;
20739;SDS011;10530;49.968;19.844;2022-08-19T14:16:56;11.00;;;6.47;;
20739;SDS011;10530;49.968;19.844;2022-08-19T14:21:59;11.33;;;5.77;;
20739;SDS011;10530;49.968;19.844;2022-08-19T14:27:02;9.27;;;6.28;;
20739;SDS011;10530;49.968;19.844;2022-08-19T14:32:05;8.65;;;6.05;;
20739;SDS011;10530;49.968;19.844;2022-08-19T14:37:16;13.10;;;6.70;;
20739;SDS011;10530;49.968;19.844;2022-08-19T14:42:20;10.63;;;6.15;;
20739;SDS011;10530;49.968;19.844;2022-08-19T14:47:22;9.97;;;6.17;;
20739;SDS011;10530;49.968;19.844;2022-08-19T14:52:26;10.60;;;6.47;;
20739;SDS011;10530;49.968;19.844;2022-08-19T14:57:29;10.05;;;6.35;;
20739;SDS011;10530;49.968;19.844;2022-08-19T15:02:32;9.57;;;6.03;;
20739;SDS011;10530;49.968;19.844;2022-08-19T15:07:36;9.45;;;6.03;;
20739;SDS011;10530;49.968;19.844;2022-08-19T15:12:40;11.53;;;6.40;;
20739;SDS011;10530;49.968;19.844;2022-08-19T15:17:45;8.77;;;5.85;;
20739;SDS011;10530;49.968;19.844;2022-08-19T15:22:48;12.38;;;6.18;;
20739;SDS011;10530;49.968;19.844;2022-08-19T15:27:51;10.00;;;6.10;;
20739;SDS011;10530;49.968;19.844;2022-08-19T15:32:55;10.10;;;6.32;;
20739;SDS011;10530;49.968;19.844;2022-08-19T15:37:59;10.83;;;6.60;;
20739;SDS011;10530;49.968;19.844;2022-08-19T15:43:02;12.57;;;6.20;;
20739;SDS011;10530;49.968;19.844;2022-08-19T15:48:05;11.27;;;6.50;;
20739;SDS011;10530;49.968;19.844;2022-08-19T15:53:08;9.83;;;6.43;;
20739;SDS011;10530;49.968;19.844;2022-08-19T15:58:12;11.15;;;6.28;;
20739;SDS011;10530;49.968;19.844;2022-08-19T16:03:34;10.67;;;6.40;;
20739;SDS011;10530;49.968;19.844;2022-08-19T16:08:56;11.25;;;6.63;;
20739;SDS011;10530;49.968;19.844;2022-08-19T16:14:02;12.93;;;6.90;;
20739;SDS011;10530;49.968;19.844;2022-08-19T16:19:08;15.13;;;7.00;;
20739;SDS011;10530;49.968;19.844;2022-08-19T16:24:13;12.85;;;6.78;;
20739;SDS011;10530;49.968;19.844;2022-08-19T16:29:17;12.17;;;6.47;;
20739;SDS011;10530;49.968;19.844;2022-08-19T16:34:36;13.05;;;6.82;;
20739;SDS011;10530;49.968;19.844;2022-08-19T16:39:42;11.88;;;6.78;;
20739;SDS011;10530;49.968;19.844;2022-08-19T16:44:46;12.63;;;7.00;;
20739;SDS011;10530;49.968;19.844;2022-08-19T16:49:49;12.35;;;6.70;;
20739;SDS011;10530;49.968;19.844;2022-08-19T16:54:55;13.43;;;7.27;;
20739;SDS011;10530;49.968;19.844;2022-08-19T16:59:58;12.65;;;7.47;;
20739;SDS011;10530;49.968;19.844;2022-08-19T17:05:06;16.08;;;7.07;;
20739;SDS011;10530;49.968;19.844;2022-08-19T17:10:09;12.17;;;8.10;;
20739;SDS011;10530;49.968;19.844;2022-08-19T17:15:12;17.38;;;8.27;;
20739;SDS011;10530;49.968;19.844;2022-08-19T17:20:15;15.43;;;7.70;;
20739;SDS011;10530;49.968;19.844;2022-08-19T17:25:18;14.55;;;7.03;;
20739;SDS011;10530;49.968;19.844;2022-08-19T17:30:20;12.90;;;7.75;;
20739;SDS011;10530;49.968;19.844;2022-08-19T17:35:24;13.10;;;7.77;;
20739;SDS011;10530;49.968;19.844;2022-08-19T17:40:28;13.43;;;7.95;;
20739;SDS011;10530;49.968;19.844;2022-08-19T17:45:33;16.43;;;8.07;;
20739;SDS011;10530;49.968;19.844;2022-08-19T17:50:37;13.10;;;7.15;;
20739;SDS011;10530;49.968;19.844;2022-08-19T17:55:41;13.70;;;7.20;;
20739;SDS011;10530;49.968;19.844;2022-08-19T18:00:48;14.13;;;8.00;;
20739;SDS011;10530;49.968;19.844;2022-08-19T18:05:55;15.23;;;7.63;;
20739;SDS011;10530;49.968;19.844;2022-08-19T18:10:58;15.43;;;7.53;;
20739;SDS011;10530;49.968;19.844;2022-08-19T18:16:02;13.60;;;7.45;;
20739;SDS011;10530;49.968;19.844;2022-08-19T18:21:11;13.07;;;7.25;;
20739;SDS011;10530;49.968;19.844;2022-08-19T18:26:15;13.57;;;7.77;;
20739;SDS011;10530;49.968;19.844;2022-08-19T18:31:18;18.88;;;9.85;;
20739;SDS011;10530;49.968;19.844;2022-08-19T18:36:22;17.90;;;7.80;;
20739;SDS011;10530;49.968;19.844;2022-08-19T18:41:45;16.08;;;7.40;;
20739;SDS011;10530;49.968;19.844;2022-08-19T18:47:07;17.02;;;7.00;;
20739;SDS011;10530;49.968;19.844;2022-08-19T18:52:28;19.70;;;4.87;;
20739;SDS011;10530;49.968;19.844;2022-08-19T18:57:31;16.10;;;5.45;;
20739;SDS011;10530;49.968;19.844;2022-08-19T19:02:36;10.77;;;5.03;;
20739;SDS011;10530;49.968;19.844;2022-08-19T19:07:42;14.25;;;6.10;;
20739;SDS011;10530;49.968;19.844;2022-08-19T19:12:45;13.18;;;6.00;;
20739;SDS011;10530;49.968;19.844;2022-08-19T19:17:50;12.97;;;5.93;;
20739;SDS011;10530;49.968;19.844;2022-08-19T19:22:54;14.02;;;6.13;;
20739;SDS011;10530;49.968;19.844;2022-08-19T19:27:59;13.60;;;6.17;;
20739;SDS011;10530;49.968;19.844;2022-08-19T19:33:02;15.60;;;6.78;;
20739;SDS011;10530;49.968;19.844;2022-08-19T19:38:05;13.07;;;6.18;;
20739;SDS011;10530;49.968;19.844;2022-08-19T19:43:08;13.97;;;6.40;;
20739;SDS011;10530;49.968;19.844;2022-08-19T19:48:11;12.25;;;6.15;;
20739;SDS011;10530;49.968;19.844;2022-08-19T19:53:17;14.40;;;6.07;;
20739;SDS011;10530;49.968;19.844;2022-08-19T19:58:20;14.02;;;6.38;;
20739;SDS011;10530;49.968;19.844;2022-08-19T20:03:30;13.98;;;6.32;;
20739;SDS011;10530;49.968;19.844;2022-08-19T20:08:34;15.53;;;6.70;;
20739;SDS011;10530;49.968;19.844;2022-08-19T20:13:55;11.70;;;6.20;;
20739;SDS011;10530;49.968;19.844;2022-08-19T20:18:59;13.77;;;6.03;;
20739;SDS011;10530;49.968;19.844;2022-08-19T20:24:03;15.75;;;6.10;;
20739;SDS011;10530;49.968;19.844;2022-08-19T20:29:11;13.93;;;6.30;;
20739;SDS011;10530;49.968;19.844;2022-08-19T20:34:34;12.23;;;5.77;;
20739;SDS011;10530;49.968;19.844;2022-08-19T20:39:38;15.00;;;6.78;;
20739;SDS011;10530;49.968;19.844;2022-08-19T20:44:41;14.73;;;6.30;;
20739;SDS011;10530;49.968;19.844;2022-08-19T20:49:44;14.70;;;6.10;;
20739;SDS011;10530;49.968;19.844;2022-08-19T20:54:47;15.65;;;6.45;;
20739;SDS011;10530;49.968;19.844;2022-08-19T20:59:50;13.97;;;6.10;;
20739;SDS011;10530;49.968;19.844;2022-08-19T21:04:53;13.32;;;6.47;;
20739;SDS011;10530;49.968;19.844;2022-08-19T21:10:00;13.73;;;6.20;;
20739;SDS011;10530;49.968;19.844;2022-08-19T21:15:05;14.27;;;7.15;;
20739;SDS011;10530;49.968;19.844;2022-08-19T21:20:08;14.90;;;5.95;;
20739;SDS011;10530;49.968;19.844;2022-08-19T21:25:12;15.43;;;6.50;;
20739;SDS011;10530;49.968;19.844;2022-08-19T21:30:15;16.83;;;6.90;;
20739;SDS011;10530;49.968;19.844;2022-08-19T21:35:18;17.90;;;6.90;;
20739;SDS011;10530;49.968;19.844;2022-08-19T21:40:21;12.95;;;6.47;;
20739;SDS011;10530;49.968;19.844;2022-08-19T21:45:25;16.73;;;7.32;;
20739;SDS011;10530;49.968;19.844;2022-08-19T21:50:28;12.17;;;6.70;;
20739;SDS011;10530;49.968;19.844;2022-08-19T21:55:33;18.00;;;6.95;;
20739;SDS011;10530;49.968;19.844;2022-08-19T22:00:36;15.07;;;6.70;;
20739;SDS011;10530;49.968;19.844;2022-08-19T22:05:39;15.35;;;6.68;;
20739;SDS011;10530;49.968;19.844;2022-08-19T22:10:42;14.30;;;7.05;;
20739;SDS011;10530;49.968;19.844;2022-08-19T22:15:48;15.70;;;6.93;;
20739;SDS011;10530;49.968;19.844;2022-08-19T22:20:52;13.73;;;6.88;;
20739;SDS011;10530;49.968;19.844;2022-08-19T22:25:55;15.13;;;6.93;;
20739;SDS011;10530;49.968;19.844;2022-08-19T22:30:58;15.63;;;7.75;;
20739;SDS011;10530;49.968;19.844;2022-08-19T22:36:04;14.00;;;6.72;;
20739;SDS011;10530;49.968;19.844;2022-08-19T22:41:10;16.27;;;7.23;;
20739;SDS011;10530;49.968;19.844;2022-08-19T22:46:13;13.75;;;6.85;;
20739;SDS011;10530;49.968;19.844;2022-08-19T22:51:18;16.10;;;7.00;;
20739;SDS011;10530;49.968;19.844;2022-08-19T22:56:39;15.20;;;7.07;;
20739;SDS011;10530;49.968;19.844;2022-08-19T23:01:42;16.30;;;6.60;;
20739;SDS011;10530;49.968;19.844;2022-08-19T23:06:45;16.43;;;7.43;;
20739;SDS011;10530;49.968;19.844;2022-08-19T23:11:48;18.20;;;7.65;;
20739;SDS011;10530;49.968;19.844;2022-08-19T23:16:51;14.97;;;6.77;;
20739;SDS011;10530;49.968;19.844;2022-08-19T23:21:59;15.38;;;7.43;;
20739;SDS011;10530;49.968;19.844;2022-08-19T23:27:02;14.68;;;7.25;;
20739;SDS011;10530;49.968;19.844;2022-08-19T23:32:37;14.63;;;7.60;;
20739;SDS011;10530;49.968;19.844;2022-08-19T23:37:41;14.15;;;7.43;;
20739;SDS011;10530;49.968;19.844;2022-08-19T23:42:44;15.60;;;7.40;;
20739;SDS011;10530;49.968;19.844;2022-08-19T23:47:47;18.90;;;8.23;;
20739;SDS011;10530;49.968;19.844;2022-08-19T23:52:55;15.55;;;7.15;;
20739;SDS011;10530;49.968;19.844;2022-08-19T23:58:01;15.77;;;7.87;;
